Time;durP1;ratioP1;P1;durP2;ratioP2;P2;SDS_P1;SDS_P2;PMS_P1;PMS_P2;Temp;Humidity;BMP_temperature;BMP_pressure;BME280_temperature;BME280_humidity;BME280_pressure;Samples;Min_cycle;Max_cycle;Signal;HPM_P1;HPM_P2
2022/08/26 00:01:27;;;;;;;16.52;11.30;;;21.70;99.90;;;;;;5074294;28;20372;-74
2022/08/26 00:03:52;;;;;;;16.83;12.43;;;21.70;99.90;;;;;;5036774;28;20067;-74
2022/08/26 00:06:19;;;;;;;12.45;9.48;;;21.60;99.90;;;;;;5049424;28;20041;-74
2022/08/26 00:08:45;;;;;;;14.75;11.80;;;21.50;99.90;;;;;;5048106;28;20047;-74
2022/08/26 00:11:11;;;;;;;14.07;9.43;;;21.50;99.90;;;;;;5050499;28;20056;-74
2022/08/26 00:13:37;;;;;;;13.10;9.27;;;21.40;99.90;;;;;;5050017;28;20041;-74
2022/08/26 00:16:05;;;;;;;14.13;11.52;;;21.40;99.90;;;;;;5032273;28;20052;-73
2022/08/26 00:18:30;;;;;;;15.30;11.93;;;21.40;99.90;;;;;;5056473;28;20502;-73
2022/08/26 00:20:56;;;;;;;17.45;13.07;;;21.30;99.90;;;;;;5023210;28;20037;-73
2022/08/26 00:23:22;;;;;;;17.15;11.48;;;21.20;99.90;;;;;;5055814;28;20097;-73
2022/08/26 00:25:48;;;;;;;18.33;14.27;;;21.10;99.90;;;;;;5073584;28;20040;-73
2022/08/26 00:28:14;;;;;;;15.80;12.73;;;21.00;99.90;;;;;;5056077;28;20497;-73
2022/08/26 00:30:41;;;;;;;14.00;12.32;;;20.90;99.90;;;;;;5042545;28;20044;-74
2022/08/26 00:33:07;;;;;;;14.48;12.75;;;20.80;99.90;;;;;;5041942;28;20158;-74
2022/08/26 00:35:33;;;;;;;13.60;10.80;;;20.80;99.90;;;;;;5039364;28;20103;-74
2022/08/26 00:38:00;;;;;;;12.68;10.30;;;20.90;99.90;;;;;;5072040;28;20122;-74
2022/08/26 00:40:33;;;;;;;16.42;12.32;;;20.90;99.90;;;;;;5073199;28;20048;-74
2022/08/26 00:43:00;;;;;;;15.32;13.32;;;20.90;99.90;;;;;;5041705;28;20041;-74
2022/08/26 00:45:26;;;;;;;17.52;14.40;;;20.90;99.90;;;;;;5079947;28;20379;-74
2022/08/26 00:47:58;;;;;;;17.88;15.88;;;20.90;99.90;;;;;;5065915;28;20040;-74
2022/08/26 00:50:32;;;;;;;17.65;15.73;;;20.80;99.90;;;;;;5042488;28;20067;-74
2022/08/26 00:53:00;;;;;;;17.50;13.48;;;20.80;99.90;;;;;;5039608;28;20048;-74
2022/08/26 00:55:38;;;;;;;20.58;18.35;;;20.70;99.90;;;;;;5042288;28;20379;-73
2022/08/26 00:58:05;;;;;;;22.90;20.48;;;20.70;99.90;;;;;;5055688;28;20051;-73
2022/08/26 01:00:31;;;;;;;18.30;16.40;;;20.70;99.90;;;;;;5055916;28;20417;-73
2022/08/26 01:03:00;;;;;;;21.50;19.13;;;20.80;99.90;;;;;;5055235;28;20040;-73
2022/08/26 01:05:26;;;;;;;22.33;18.80;;;20.80;99.90;;;;;;5050488;28;20598;-74
2022/08/26 01:07:52;;;;;;;22.05;19.42;;;20.80;99.90;;;;;;5035322;28;20049;-73
2022/08/26 01:10:21;;;;;;;22.73;20.20;;;20.80;99.90;;;;;;5042485;28;20047;-72
2022/08/26 01:12:51;;;;;;;22.38;18.80;;;20.70;99.90;;;;;;5041811;28;20138;-73
2022/08/26 01:15:25;;;;;;;23.40;20.90;;;20.70;99.90;;;;;;5049790;28;20388;-72
2022/08/26 01:17:51;;;;;;;28.05;25.20;;;20.70;99.90;;;;;;5019052;28;20056;-73
2022/08/26 01:20:50;;;;;;;27.13;24.25;;;20.70;99.90;;;;;;5035016;28;20033;-73
2022/08/26 01:23:17;;;;;;;29.45;26.55;;;20.60;99.90;;;;;;5066936;28;20040;-72
2022/08/26 01:25:49;;;;;;;35.22;31.63;;;20.60;99.90;;;;;;5053177;28;20037;-73
2022/08/26 01:28:28;;;;;;;32.50;29.30;;;20.60;99.90;;;;;;5035836;28;20554;-72
2022/08/26 01:30:56;;;;;;;35.85;31.13;;;20.60;99.90;;;;;;5041219;28;20064;-73
2022/08/26 01:33:28;;;;;;;37.75;34.00;;;20.60;99.90;;;;;;5063566;28;20037;-73
2022/08/26 01:35:54;;;;;;;37.83;33.83;;;20.60;99.90;;;;;;5048398;28;20117;-73
2022/08/26 01:38:20;;;;;;;42.45;38.10;;;20.60;99.90;;;;;;5052656;28;20045;-73
2022/08/26 01:40:47;;;;;;;42.10;38.10;;;20.60;99.90;;;;;;5035221;28;20124;-73
2022/08/26 01:43:20;;;;;;;39.63;35.35;;;20.50;99.90;;;;;;5052646;28;20515;-72
2022/08/26 01:45:48;;;;;;;43.50;38.95;;;20.50;99.90;;;;;;5028560;28;20051;-72
2022/08/26 01:48:19;;;;;;;45.05;40.28;;;20.50;99.90;;;;;;5026028;28;20076;-71
2022/08/26 01:50:45;;;;;;;48.40;43.22;;;20.50;99.90;;;;;;5036130;28;20044;-72
2022/08/26 01:53:13;;;;;;;38.92;34.78;;;20.40;99.90;;;;;;5053384;28;20049;-72
2022/08/26 01:55:42;;;;;;;42.28;37.83;;;20.40;99.90;;;;;;5035315;28;20048;-73
2022/08/26 01:58:13;;;;;;;44.92;40.28;;;20.40;99.90;;;;;;5048880;28;20218;-74
2022/08/26 02:00:39;;;;;;;;;;;20.40;99.90;;;;;;5023465;28;20055;-71
2022/08/26 02:03:15;;;;;;;41.22;36.85;;;20.40;99.90;;;;;;5060560;28;20003;-72
2022/08/26 02:05:53;;;;;;;49.88;42.65;;;20.40;99.90;;;;;;5021014;28;20044;-73
2022/08/26 02:08:34;;;;;;;50.67;44.67;;;20.30;99.90;;;;;;5039817;28;20522;-72
2022/08/26 02:11:00;;;;;;;49.03;43.37;;;20.40;99.90;;;;;;5041110;28;20494;-72
2022/08/26 02:13:30;;;;;;;50.20;44.88;;;20.40;99.90;;;;;;5053423;28;20303;-71
2022/08/26 02:15:57;;;;;;;45.60;40.53;;;20.30;99.90;;;;;;5051578;28;20489;-73
2022/08/26 02:18:24;;;;;;;53.75;46.13;;;20.40;99.90;;;;;;5023698;28;20045;-71
2022/08/26 02:20:53;;;;;;;51.08;45.25;;;20.40;99.90;;;;;;5035686;28;20072;-71
2022/08/26 02:23:19;;;;;;;44.25;38.90;;;20.40;99.90;;;;;;5068619;28;20090;-71
2022/08/26 02:26:16;;;;;;;44.90;39.13;;;20.40;99.90;;;;;;5035173;28;20036;-71
2022/08/26 02:29:32;;;;;;;46.65;39.30;;;20.40;99.90;;;;;;5034426;28;20049;-72
2022/08/26 02:31:58;;;;;;;48.65;41.22;;;20.40;99.90;;;;;;5031387;28;20071;-72
2022/08/26 02:34:30;;;;;;;48.83;42.72;;;20.40;99.90;;;;;;5049192;28;20041;-73
2022/08/26 02:36:57;;;;;;;51.83;43.50;;;20.50;99.90;;;;;;5029623;28;20375;-72
2022/08/26 02:39:23;;;;;;;50.88;44.55;;;20.50;99.90;;;;;;5040403;28;20044;-73
2022/08/26 02:41:49;;;;;;;47.85;42.55;;;20.50;99.90;;;;;;5034765;28;20379;-72
2022/08/26 02:44:15;;;;;;;47.78;41.30;;;20.50;99.90;;;;;;5068917;28;20045;-72
2022/08/26 02:46:41;;;;;;;51.25;43.95;;;20.50;99.90;;;;;;5071183;28;20383;-74
2022/08/26 02:49:08;;;;;;;51.40;41.78;;;20.50;99.90;;;;;;5040681;28;20135;-72
2022/08/26 02:51:34;;;;;;;46.58;39.80;;;20.50;99.90;;;;;;5037579;28;20115;-73
2022/08/26 02:53:59;;;;;;;51.55;39.95;;;20.50;99.90;;;;;;5040542;28;20041;-72
2022/08/26 02:56:25;;;;;;;48.22;39.38;;;20.50;99.90;;;;;;5057822;28;20109;-72
2022/08/26 02:58:51;;;;;;;43.33;36.42;;;20.50;99.90;;;;;;5065224;28;20036;-72
2022/08/26 03:01:23;;;;;;;45.13;38.90;;;20.50;99.90;;;;;;5063987;28;20044;-71
2022/08/26 03:03:49;;;;;;;47.03;38.63;;;20.50;99.90;;;;;;5058070;28;20070;-71
2022/08/26 03:06:15;;;;;;;43.35;37.20;;;20.50;99.90;;;;;;5057653;28;20045;-73
2022/08/26 03:08:40;;;;;;;44.00;36.35;;;20.50;99.90;;;;;;5068309;28;20041;-72
2022/08/26 03:11:06;;;;;;;39.72;34.50;;;20.50;99.90;;;;;;5081051;28;20355;-71
2022/08/26 03:13:32;;;;;;;40.63;34.20;;;20.50;99.90;;;;;;5044111;28;20171;-71
2022/08/26 03:16:00;;;;;;;41.80;36.00;;;20.50;99.90;;;;;;5075654;28;20364;-71
2022/08/26 03:18:26;;;;;;;48.53;37.58;;;20.50;99.90;;;;;;5042980;28;20040;-71
2022/08/26 03:20:51;;;;;;;35.90;31.10;;;20.50;99.90;;;;;;5031460;28;20037;-72
2022/08/26 03:23:17;;;;;;;44.47;37.17;;;20.50;99.90;;;;;;5051758;28;20055;-73
2022/08/26 03:25:48;;;;;;;38.83;32.90;;;20.50;99.90;;;;;;5040887;28;20418;-72
2022/08/26 03:28:14;;;;;;;42.85;34.08;;;20.60;99.90;;;;;;5054232;28;20080;-73
2022/08/26 03:30:40;;;;;;;45.42;37.63;;;20.60;99.90;;;;;;5065168;28;20100;-71
2022/08/26 03:33:09;;;;;;;38.97;32.95;;;20.60;99.90;;;;;;5037181;28;20037;-72
2022/08/26 03:35:35;;;;;;;42.47;36.08;;;20.60;99.90;;;;;;5054950;28;20094;-73
2022/08/26 03:38:02;;;;;;;44.90;37.78;;;20.60;99.90;;;;;;5057024;28;20044;-73
2022/08/26 03:40:28;;;;;;;37.95;33.97;;;20.50;99.90;;;;;;5038313;28;20052;-72
2022/08/26 03:42:54;;;;;;;39.72;33.80;;;20.50;99.90;;;;;;5063324;28;20036;-72
2022/08/26 03:45:20;;;;;;;40.53;33.95;;;20.50;99.90;;;;;;5059983;28;20114;-71
2022/08/26 03:47:46;;;;;;;45.90;37.83;;;20.50;99.90;;;;;;5020947;28;20033;-72
2022/08/26 03:50:15;;;;;;;46.40;38.65;;;20.60;99.90;;;;;;5037106;28;20376;-72
2022/08/26 03:52:42;;;;;;;42.53;36.33;;;20.50;99.90;;;;;;5038184;28;20044;-71
2022/08/26 03:55:08;;;;;;;40.22;35.85;;;20.50;99.90;;;;;;5043284;28;20161;-70
2022/08/26 03:57:35;;;;;;;50.67;40.70;;;20.00;99.90;;;;;;5036804;28;20044;-71
2022/08/26 04:00:01;;;;;;;48.90;39.30;;;20.50;99.90;;;;;;5057217;28;20039;-72
2022/08/26 04:02:27;;;;;;;40.50;36.30;;;20.50;99.90;;;;;;5057756;28;20078;-72
2022/08/26 04:04:52;;;;;;;44.78;37.30;;;20.50;99.90;;;;;;5070321;28;20076;-72
2022/08/26 04:07:18;;;;;;;44.30;37.42;;;20.50;99.90;;;;;;5055795;28;20051;-71
2022/08/26 04:09:44;;;;;;;38.97;32.15;;;20.50;99.90;;;;;;5060138;28;20411;-71
2022/08/26 04:12:10;;;;;;;37.90;31.92;;;20.50;99.90;;;;;;5056213;28;20049;-72
2022/08/26 04:14:37;;;;;;;40.65;33.80;;;20.50;99.90;;;;;;5069545;28;20047;-72
2022/08/26 04:17:03;;;;;;;41.22;33.85;;;20.50;99.90;;;;;;5021681;28;20041;-72
2022/08/26 04:19:31;;;;;;;37.95;31.63;;;20.60;99.90;;;;;;5065069;28;20051;-72
2022/08/26 04:21:58;;;;;;;45.28;36.40;;;20.50;99.90;;;;;;5055317;28;20464;-72
2022/08/26 04:24:25;;;;;;;40.63;32.40;;;20.50;99.90;;;;;;5046313;28;20049;-71
2022/08/26 04:26:52;;;;;;;43.88;35.95;;;20.60;99.90;;;;;;5038643;28;20072;-72
2022/08/26 04:29:20;;;;;;;43.50;36.58;;;20.50;99.90;;;;;;5056136;28;20036;-71
2022/08/26 04:31:49;;;;;;;41.45;33.08;;;20.60;99.90;;;;;;5059594;28;20045;-71
2022/08/26 04:34:16;;;;;;;33.60;28.77;;;20.50;99.90;;;;;;5039949;28;20472;-71
2022/08/26 04:36:42;;;;;;;42.22;35.88;;;20.60;99.90;;;;;;5072576;28;20083;-71
2022/08/26 04:39:15;;;;;;;41.53;33.08;;;20.60;99.90;;;;;;5055435;28;20076;-71
2022/08/26 04:41:45;;;;;;;40.83;33.85;;;20.60;99.90;;;;;;5039680;28;20379;-71
2022/08/26 04:44:12;;;;;;;39.03;32.85;;;20.60;99.90;;;;;;5055133;28;20083;-70
2022/08/26 04:46:38;;;;;;;39.92;31.77;;;20.60;99.90;;;;;;5055968;28;20123;-71
2022/08/26 04:49:07;;;;;;;40.17;33.53;;;20.60;99.90;;;;;;5055946;28;20040;-71
2022/08/26 04:51:34;;;;;;;39.90;31.52;;;20.60;99.90;;;;;;5052110;28;20045;-71
2022/08/26 04:54:00;;;;;;;40.25;32.05;;;20.60;99.90;;;;;;5035029;28;20112;-71
2022/08/26 04:56:32;;;;;;;38.17;29.80;;;20.60;99.90;;;;;;5068558;28;20045;-72
2022/08/26 04:58:59;;;;;;;39.60;30.70;;;20.60;99.90;;;;;;5055443;28;20507;-71
2022/08/26 05:01:25;;;;;;;37.33;29.48;;;20.70;99.90;;;;;;5054716;28;20495;-71
2022/08/26 05:03:51;;;;;;;36.13;28.30;;;20.70;99.90;;;;;;5042239;28;20089;-71
2022/08/26 05:06:18;;;;;;;38.95;31.13;;;20.70;99.90;;;;;;5042317;28;20049;-72
2022/08/26 05:08:44;;;;;;;38.78;29.67;;;20.70;99.90;;;;;;5037581;28;20048;-71
2022/08/26 05:11:10;;;;;;;35.67;29.27;;;20.70;99.90;;;;;;5070990;28;20127;-70
2022/08/26 05:13:37;;;;;;;36.28;27.15;;;20.70;99.90;;;;;;5067769;28;20084;-72
2022/08/26 05:16:09;;;;;;;32.80;25.83;;;20.70;99.90;;;;;;5043548;28;20045;-72
2022/08/26 05:18:36;;;;;;;;;;;20.80;99.90;;;;;;5039876;28;20467;-71
2022/08/26 05:21:02;;;;;;;33.60;28.30;;;20.80;99.90;;;;;;5055054;28;19920;-71
2022/08/26 05:23:30;;;;;;;35.75;27.35;;;20.80;99.90;;;;;;5038168;28;20048;-71
2022/08/26 05:25:57;;;;;;;34.40;25.98;;;20.80;99.90;;;;;;5044596;28;20040;-71
2022/08/26 05:28:24;;;;;;;34.88;26.10;;;20.80;99.90;;;;;;5040126;28;20045;-71
2022/08/26 05:30:50;;;;;;;35.20;27.23;;;20.80;99.90;;;;;;5042753;28;20032;-72
2022/08/26 05:33:17;;;;;;;39.42;26.23;;;20.90;99.90;;;;;;5037090;28;20086;-71
2022/08/26 05:35:44;;;;;;;39.45;26.65;;;20.90;99.90;;;;;;5033647;28;20033;-71
2022/08/26 05:38:14;;;;;;;34.70;26.08;;;20.90;99.90;;;;;;5051698;28;20498;-72
2022/08/26 05:40:45;;;;;;;34.90;24.73;;;20.90;99.90;;;;;;5023542;28;20510;-71
2022/08/26 05:43:12;;;;;;;33.70;24.10;;;20.90;99.90;;;;;;5051399;28;20115;-71
2022/08/26 05:45:41;;;;;;;27.77;22.08;;;20.90;99.90;;;;;;5013992;28;20056;-71
2022/08/26 05:48:07;;;;;;;30.02;23.35;;;20.90;99.90;;;;;;5055062;28;20040;-71
2022/08/26 05:50:45;;;;;;;31.00;23.23;;;21.00;99.90;;;;;;5039348;28;20055;-71
2022/08/26 05:53:12;;;;;;;30.52;22.70;;;21.00;99.90;;;;;;5040912;28;20468;-71
2022/08/26 05:55:44;;;;;;;28.90;22.10;;;21.00;99.90;;;;;;5052239;28;20041;-72
2022/08/26 05:58:10;;;;;;;;;;;21.00;99.90;;;;;;5020832;28;20043;-73
2022/08/26 06:00:36;;;;;;;30.25;23.27;;;21.10;99.90;;;;;;5037494;28;20348;-73
2022/08/26 06:03:01;;;;;;;30.13;20.00;;;21.10;99.90;;;;;;5065468;28;20052;-72
2022/08/26 06:05:27;;;;;;;28.17;21.42;;;21.10;99.90;;;;;;5054499;28;20466;-72
2022/08/26 06:08:12;;;;;;;28.05;21.35;;;21.10;99.90;;;;;;5046181;28;20038;-72
2022/08/26 06:10:43;;;;;;;31.05;21.10;;;21.10;99.90;;;;;;5036966;28;20091;-72
2022/08/26 06:13:09;;;;;;;29.03;20.87;;;21.20;99.90;;;;;;5053723;28;20049;-71
2022/08/26 06:15:45;;;;;;;28.05;20.42;;;21.20;99.90;;;;;;5050012;28;20471;-72
2022/08/26 06:18:13;;;;;;;27.52;20.67;;;21.20;99.90;;;;;;5037414;28;20098;-72
2022/08/26 06:20:42;;;;;;;27.73;20.27;;;21.20;99.90;;;;;;5042586;28;20426;-72
2022/08/26 06:25:59;;;;;;;28.02;20.63;;;21.20;99.90;;;;;;5038986;28;20068;-72
2022/08/26 06:28:25;;;;;;;30.27;21.20;;;21.30;99.90;;;;;;5037660;28;20399;-72
2022/08/26 06:30:52;;;;;;;28.35;19.77;;;21.30;99.90;;;;;;5035395;28;20048;-72
2022/08/26 06:33:18;;;;;;;28.70;21.02;;;21.30;99.90;;;;;;5053685;28;20533;-73
2022/08/26 06:35:47;;;;;;;28.52;19.92;;;21.30;99.90;;;;;;5036920;28;20048;-75
2022/08/26 06:38:14;;;;;;;27.00;20.73;;;21.40;99.90;;;;;;5055915;28;20044;-73
2022/08/26 06:40:48;;;;;;;24.48;19.95;;;21.40;99.90;;;;;;5072842;28;20376;-72
2022/08/26 06:43:16;;;;;;;24.92;19.65;;;21.40;99.90;;;;;;5049328;28;20463;-72
2022/08/26 06:45:44;;;;;;;26.98;19.70;;;21.40;99.90;;;;;;5038221;28;20044;-71
2022/08/26 06:48:11;;;;;;;27.02;19.83;;;21.40;99.90;;;;;;5052165;28;20441;-74
2022/08/26 06:50:37;;;;;;;27.13;18.90;;;21.50;99.90;;;;;;5040374;28;20372;-73
2022/08/26 06:53:02;;;;;;;24.52;17.60;;;21.50;99.90;;;;;;5026994;28;20043;-74
2022/08/26 06:55:28;;;;;;;25.00;17.48;;;21.50;99.90;;;;;;5046071;28;20609;-73
2022/08/26 06:57:55;;;;;;;24.52;17.42;;;21.60;99.90;;;;;;5043902;28;20033;-74
2022/08/26 07:00:21;;;;;;;25.48;17.08;;;21.60;99.90;;;;;;5043676;28;20051;-75
2022/08/26 07:02:47;;;;;;;23.30;16.30;;;21.60;99.90;;;;;;5063526;28;20037;-73
2022/08/26 07:05:12;;;;;;;22.13;16.52;;;21.70;99.90;;;;;;5054757;28;20049;-73
2022/08/26 07:07:38;;;;;;;24.25;15.60;;;21.70;99.90;;;;;;5044061;28;20498;-72
2022/08/26 07:10:07;;;;;;;22.83;15.95;;;21.80;99.90;;;;;;5063543;28;20039;-74
2022/08/26 07:12:34;;;;;;;24.90;14.98;;;21.80;99.90;;;;;;5050180;28;20063;-74
2022/08/26 07:15:00;;;;;;;25.02;15.73;;;21.90;99.90;;;;;;5054619;28;20052;-73
2022/08/26 07:17:27;;;;;;;22.63;14.90;;;21.90;99.90;;;;;;5029417;28;20436;-73
2022/08/26 07:19:52;;;;;;;22.90;15.10;;;21.70;99.90;;;;;;5026681;28;20053;-73
2022/08/26 07:22:18;;;;;;;20.92;14.35;;;21.80;99.90;;;;;;5043894;28;20059;-72
2022/08/26 07:24:44;;;;;;;21.00;13.77;;;21.80;99.90;;;;;;5058154;28;20464;-72
2022/08/26 07:27:13;;;;;;;23.67;14.63;;;21.90;99.90;;;;;;5042340;28;20438;-73
2022/08/26 07:29:42;;;;;;;21.95;14.07;;;21.90;99.90;;;;;;5059553;28;20067;-73
2022/08/26 07:32:10;;;;;;;22.85;14.02;;;21.90;99.90;;;;;;5036725;28;20387;-74
2022/08/26 07:34:37;;;;;;;20.38;12.43;;;21.90;99.90;;;;;;5020108;28;20380;-78
2022/08/26 07:37:03;;;;;;;19.38;13.00;;;21.90;99.90;;;;;;5064995;28;20044;-72
2022/08/26 07:39:30;;;;;;;20.88;13.25;;;22.00;99.90;;;;;;5036660;28;20048;-72
2022/08/26 07:41:56;;;;;;;20.35;12.27;;;22.00;99.90;;;;;;5038272;28;20032;-73
2022/08/26 07:44:22;;;;;;;21.45;12.07;;;22.00;99.90;;;;;;5060971;28;20125;-73
2022/08/26 07:46:48;;;;;;;20.52;12.20;;;22.10;99.90;;;;;;5026349;28;20041;-71
2022/08/26 07:49:16;;;;;;;23.13;12.27;;;22.20;99.90;;;;;;5056827;28;20442;-72
2022/08/26 07:51:42;;;;;;;18.10;11.23;;;22.20;99.90;;;;;;5051532;28;20128;-72
2022/08/26 07:54:08;;;;;;;20.10;10.95;;;22.30;99.90;;;;;;5056515;28;20111;-72
2022/08/26 07:56:34;;;;;;;19.77;10.93;;;22.50;99.90;;;;;;5023589;28;20048;-72
2022/08/26 07:59:00;;;;;;;19.52;10.77;;;22.60;99.90;;;;;;5050472;28;20105;-78
2022/08/26 08:01:26;;;;;;;16.00;10.27;;;22.70;99.90;;;;;;5050144;28;20468;-75
2022/08/26 08:03:53;;;;;;;19.50;10.70;;;22.80;99.90;;;;;;5049378;28;20093;-75
2022/08/26 08:06:20;;;;;;;17.77;10.13;;;22.80;99.90;;;;;;5066031;28;20040;-74
2022/08/26 08:08:46;;;;;;;16.33;9.93;;;22.90;99.90;;;;;;5040880;28;20041;-73
2022/08/26 08:11:12;;;;;;;17.70;9.73;;;22.90;99.90;;;;;;5054060;28;20495;-73
2022/08/26 08:13:38;;;;;;;15.80;9.60;;;23.00;99.90;;;;;;5039369;28;20037;-72
2022/08/26 08:16:04;;;;;;;16.30;9.45;;;23.00;99.90;;;;;;5019987;28;20520;-75
2022/08/26 08:18:30;;;;;;;15.68;9.05;;;23.10;99.90;;;;;;5037905;28;20037;-73
2022/08/26 08:20:56;;;;;;;17.65;9.65;;;23.10;99.90;;;;;;5056044;28;20041;-75
2022/08/26 08:23:22;;;;;;;17.05;9.48;;;23.10;99.90;;;;;;5035699;28;20048;-73
2022/08/26 08:25:48;;;;;;;15.30;8.88;;;23.10;99.90;;;;;;5038452;28;20033;-73
2022/08/26 08:28:14;;;;;;;16.58;8.75;;;23.30;99.90;;;;;;5037933;28;20072;-74
2022/08/26 08:30:41;;;;;;;15.57;8.27;;;23.50;99.90;;;;;;5039745;28;20170;-72
2022/08/26 08:33:08;;;;;;;19.63;8.80;;;23.60;99.90;;;;;;5020630;28;20047;-74
2022/08/26 08:35:34;;;;;;;18.10;8.95;;;23.60;99.90;;;;;;5037317;28;20053;-74
2022/08/26 08:38:01;;;;;;;17.95;8.30;;;23.80;99.90;;;;;;5055292;28;20037;-72
2022/08/26 08:40:27;;;;;;;16.33;8.00;;;23.80;99.90;;;;;;5048140;28;20070;-73
2022/08/26 08:43:05;;;;;;;16.80;7.93;;;23.90;99.90;;;;;;5038203;28;20045;-74
2022/08/26 08:45:39;;;;;;;17.52;7.70;;;23.90;99.90;;;;;;5040028;28;20089;-73
2022/08/26 08:48:24;;;;;;;20.35;7.35;;;23.80;99.90;;;;;;5036878;28;20487;-73
2022/08/26 08:50:54;;;;;;;16.40;7.47;;;23.80;99.90;;;;;;5036953;28;20060;-75
2022/08/26 08:53:30;;;;;;;16.27;7.60;;;23.80;99.90;;;;;;5035292;28;20041;-75
2022/08/26 08:56:26;;;;;;;14.48;6.90;;;23.90;99.90;;;;;;5044134;28;20044;-74
2022/08/26 08:58:57;;;;;;;13.50;7.07;;;23.90;99.90;;;;;;5043768;28;20039;-72
2022/08/26 09:01:42;;;;;;;13.75;7.03;;;24.10;99.90;;;;;;5041106;28;20045;-73
2022/08/26 09:04:10;;;;;;;14.00;7.18;;;24.10;99.90;;;;;;5039078;28;20139;-73
2022/08/26 09:06:36;;;;;;;12.38;7.28;;;24.10;99.90;;;;;;5034460;28;20044;-73
2022/08/26 09:09:02;;;;;;;12.45;7.20;;;23.90;99.90;;;;;;5034751;28;20087;-74
2022/08/26 09:11:29;;;;;;;14.52;7.18;;;23.90;99.90;;;;;;5036954;28;20139;-76
2022/08/26 09:13:56;;;;;;;13.20;7.03;;;23.90;99.90;;;;;;5055312;28;20090;-74
2022/08/26 09:16:36;;;;;;;13.70;6.85;;;23.90;99.90;;;;;;5041217;28;20086;-74
2022/08/26 09:19:16;;;;;;;14.80;6.85;;;23.90;99.90;;;;;;5041315;28;20052;-74
2022/08/26 09:21:41;;;;;;;14.48;6.65;;;23.90;99.90;;;;;;5042769;28;20087;-76
2022/08/26 09:24:07;;;;;;;14.15;6.38;;;23.90;99.90;;;;;;5040006;28;20072;-73
2022/08/26 09:26:39;;;;;;;13.40;5.93;;;24.10;99.90;;;;;;5032931;28;20044;-74
2022/08/26 09:29:24;;;;;;;14.30;6.05;;;24.20;99.90;;;;;;5033293;28;20089;-73
2022/08/26 09:31:51;;;;;;;13.65;6.38;;;24.10;99.90;;;;;;5057437;28;20041;-74
2022/08/26 09:34:26;;;;;;;11.15;5.60;;;23.90;99.90;;;;;;5037748;28;20040;-73
2022/08/26 09:36:57;;;;;;;14.15;6.15;;;24.00;99.90;;;;;;5052884;28;20080;-76
2022/08/26 09:39:23;;;;;;;10.10;5.80;;;24.10;99.90;;;;;;5054144;28;20048;-75
2022/08/26 09:42:22;;;;;;;9.98;5.43;;;24.10;99.90;;;;;;5067950;28;20053;-77
2022/08/26 09:45:05;;;;;;;11.57;5.43;;;24.00;99.90;;;;;;5060657;28;20484;-75
2022/08/26 09:47:53;;;;;;;11.77;5.20;;;23.90;99.90;;;;;;5038532;28;20040;-73
2022/08/26 09:50:29;;;;;;;13.35;4.68;;;23.90;99.90;;;;;;5070705;28;20058;-72
2022/08/26 09:53:08;;;;;;;13.05;4.10;;;23.90;99.90;;;;;;5048188;28;20033;-77
2022/08/26 09:55:36;;;;;;;10.32;3.90;;;23.90;99.90;;;;;;5050053;28;20044;-74
2022/08/26 09:58:02;;;;;;;10.75;3.90;;;23.80;99.90;;;;;;5051638;28;20051;-75
2022/08/26 10:00:35;;;;;;;10.63;4.07;;;23.70;99.90;;;;;;5075610;28;20041;-77
2022/08/26 10:03:07;;;;;;;11.75;3.85;;;23.70;99.90;;;;;;5059971;28;20114;-75
2022/08/26 10:05:42;;;;;;;11.55;3.58;;;23.70;99.90;;;;;;5057271;28;20052;-74
2022/08/26 10:08:27;;;;;;;10.40;3.20;;;23.80;99.90;;;;;;5055114;28;20499;-74
2022/08/26 10:10:56;;;;;;;9.15;3.50;;;23.80;99.90;;;;;;5055867;28;20060;-74
2022/08/26 10:13:32;;;;;;;11.32;3.70;;;23.80;99.90;;;;;;5048053;28;20049;-75
2022/08/26 10:16:44;;;;;;;13.50;3.70;;;23.70;99.90;;;;;;5058455;28;20567;-74
2022/08/26 10:19:25;;;;;;;11.57;3.20;;;23.70;99.90;;;;;;5052584;28;20152;-74
2022/08/26 10:22:06;;;;;;;10.43;3.03;;;23.60;99.90;;;;;;5038776;28;20097;-75
2022/08/26 10:24:48;;;;;;;11.52;2.88;;;23.60;99.90;;;;;;5054362;28;20044;-72
2022/08/26 10:27:32;;;;;;;;;;;23.60;99.90;;;;;;5054901;28;20089;-74
2022/08/26 10:30:09;;;;;;;10.15;2.78;;;23.50;99.90;;;;;;5043968;28;20011;-73
2022/08/26 10:32:41;;;;;;;10.23;2.88;;;23.40;99.90;;;;;;5059180;28;20029;-73
2022/08/26 10:35:10;;;;;;;11.43;2.95;;;23.30;99.90;;;;;;5044117;28;20075;-74
2022/08/26 10:37:40;;;;;;;9.95;2.67;;;23.20;99.90;;;;;;5056628;28;20040;-72
2022/08/26 10:40:19;;;;;;;11.52;3.03;;;23.20;99.90;;;;;;5054837;28;20503;-73
2022/08/26 10:43:03;;;;;;;10.68;2.50;;;23.10;99.90;;;;;;5056739;28;20052;-72
2022/08/26 10:45:35;;;;;;;8.80;2.47;;;23.10;99.90;;;;;;5057239;28;20040;-73
2022/08/26 10:48:12;;;;;;;11.27;2.55;;;23.10;99.90;;;;;;5064442;28;20068;-72
2022/08/26 10:50:44;;;;;;;10.05;2.92;;;23.20;99.90;;;;;;5029409;28;20120;-72
2022/08/26 10:53:19;;;;;;;9.85;2.53;;;23.20;99.90;;;;;;5043383;28;20364;-75
2022/08/26 10:56:03;;;;;;;11.02;2.65;;;23.10;99.90;;;;;;5044872;28;20041;-73
2022/08/26 10:58:56;;;;;;;8.70;2.58;;;23.20;99.90;;;;;;5057324;28;20048;-74
2022/08/26 11:01:40;;;;;;;8.40;2.75;;;23.20;99.90;;;;;;5038838;28;20044;-72
2022/08/26 11:04:15;;;;;;;9.80;2.72;;;23.10;99.90;;;;;;5071179;28;20471;-74
2022/08/26 11:06:44;;;;;;;11.20;2.83;;;23.10;99.90;;;;;;5041127;28;20490;-73
2022/08/26 11:09:31;;;;;;;10.00;2.83;;;23.00;99.90;;;;;;5035796;28;20395;-74
2022/08/26 11:11:57;;;;;;;11.93;2.75;;;23.00;99.90;;;;;;5038875;28;20065;-75
2022/08/26 11:14:23;;;;;;;10.07;2.80;;;23.10;99.90;;;;;;5041942;28;20048;-75
2022/08/26 11:16:51;;;;;;;10.35;2.92;;;23.00;99.90;;;;;;5049907;28;20041;-77
2022/08/26 11:19:29;;;;;;;9.27;3.05;;;22.90;99.90;;;;;;5068129;28;20405;-76
2022/08/26 11:22:02;;;;;;;12.82;3.00;;;22.80;99.90;;;;;;5045301;28;20041;-75
2022/08/26 11:24:41;;;;;;;10.35;3.10;;;22.80;99.90;;;;;;5052636;28;20079;-74
2022/08/26 11:27:36;;;;;;;11.80;2.85;;;22.80;99.90;;;;;;5059580;28;20051;-79
2022/08/26 11:30:12;;;;;;;11.25;2.47;;;22.80;99.90;;;;;;5065241;28;20060;-74
2022/08/26 11:32:38;;;;;;;10.68;3.10;;;22.80;99.90;;;;;;5054472;28;20089;-74
2022/08/26 11:35:11;;;;;;;10.00;2.85;;;22.80;99.90;;;;;;5054820;28;20052;-75
2022/08/26 11:37:44;;;;;;;11.50;3.03;;;22.70;99.90;;;;;;5069205;28;20097;-74
2022/08/26 11:40:19;;;;;;;13.48;3.15;;;22.80;99.90;;;;;;5066511;28;20044;-76
2022/08/26 11:43:06;;;;;;;10.98;2.97;;;22.90;99.90;;;;;;5065065;28;20044;-74
2022/08/26 11:45:36;;;;;;;10.23;3.25;;;23.00;99.90;;;;;;5085700;28;20044;-74
2022/08/26 11:48:17;;;;;;;10.05;2.67;;;23.00;99.90;;;;;;5072464;28;20047;-74
2022/08/26 11:50:59;;;;;;;10.70;3.00;;;23.10;99.90;;;;;;5083126;28;20109;-80
2022/08/26 11:53:26;;;;;;;9.73;2.83;;;23.10;99.90;;;;;;5031932;28;20125;-75
2022/08/26 11:55:55;;;;;;;10.38;2.75;;;23.10;99.90;;;;;;5055798;28;20036;-73
2022/08/26 11:58:24;;;;;;;10.38;3.20;;;23.20;99.90;;;;;;5068720;28;20036;-75
2022/08/26 12:01:05;;;;;;;8.93;2.83;;;23.20;99.90;;;;;;5055663;28;20048;-76
2022/08/26 12:03:36;;;;;;;10.40;2.53;;;23.20;99.90;;;;;;5058218;28;20459;-71
2022/08/26 12:06:02;;;;;;;13.05;3.20;;;23.10;99.90;;;;;;5053159;28;20052;-75
2022/08/26 12:08:31;;;;;;;11.18;2.80;;;23.10;99.90;;;;;;5050534;28;20133;-74
2022/08/26 12:11:07;;;;;;;12.50;2.95;;;23.10;99.90;;;;;;5051754;28;20476;-73
2022/08/26 12:13:37;;;;;;;10.52;2.80;;;23.10;99.90;;;;;;5057544;28;20513;-73
2022/08/26 12:16:04;;;;;;;11.40;2.95;;;23.10;99.90;;;;;;5055897;28;20056;-73
2022/08/26 12:18:35;;;;;;;8.43;2.63;;;23.10;99.90;;;;;;5053853;28;20490;-74
2022/08/26 12:21:21;;;;;;;8.52;2.70;;;23.10;99.90;;;;;;5050809;28;20072;-73
2022/08/26 12:23:50;;;;;;;8.98;2.88;;;23.10;99.90;;;;;;5058984;28;20123;-73
2022/08/26 12:26:26;;;;;;;11.73;2.95;;;23.00;99.90;;;;;;5049020;28;20051;-77
2022/08/26 12:28:54;;;;;;;10.88;2.90;;;23.00;99.90;;;;;;5059782;28;20145;-73
2022/08/26 12:31:23;;;;;;;9.35;2.58;;;23.10;99.90;;;;;;5052636;28;20075;-73
2022/08/26 12:33:50;;;;;;;9.10;2.75;;;23.20;99.90;;;;;;5050910;28;20049;-73
2022/08/26 12:36:41;;;;;;;8.77;2.63;;;23.20;99.90;;;;;;5053907;28;20489;-76
2022/08/26 12:39:14;;;;;;;11.45;2.80;;;23.30;99.90;;;;;;5061003;28;20052;-73
2022/08/26 12:42:11;;;;;;;9.43;2.83;;;23.40;99.90;;;;;;5046697;28;20032;-75
2022/08/26 12:44:45;;;;;;;9.40;2.67;;;23.20;99.90;;;;;;5036929;28;20421;-76
2022/08/26 12:47:24;;;;;;;11.35;2.85;;;23.10;99.90;;;;;;5037541;28;20372;-72
2022/08/26 12:50:01;;;;;;;8.75;2.60;;;23.00;99.90;;;;;;5053090;28;20471;-76
2022/08/26 12:52:30;;;;;;;7.43;2.40;;;22.80;99.90;;;;;;5038922;28;20044;-77